Time;durP1;ratioP1;P1;durP2;ratioP2;P2;SDS_P1;SDS_P2;PMS_P1;PMS_P2;Temp;Humidity;BMP_temperature;BMP_pressure;BME280_temperature;BME280_humidity;BME280_pressure;Samples;Min_cycle;Max_cycle;Signal;HPM_P1;HPM_P2
2020/12/19 00:01:46;;;;;;;58.13;27.80;;;3.20;81.70;;;;;;5098509;28;20039;-42
2020/12/19 00:04:13;;;;;;;60.80;27.20;;;3.20;81.60;;;;;;5098831;28;20016;-41
2020/12/19 00:06:42;;;;;;;60.50;29.85;;;3.20;81.50;;;;;;5098514;28;20055;-41
2020/12/19 00:09:08;;;;;;;57.28;25.63;;;3.10;81.50;;;;;;5098143;28;20020;-42
2020/12/19 00:11:34;;;;;;;56.88;25.95;;;3.10;81.50;;;;;;5098970;28;20047;-41
2020/12/19 00:13:59;;;;;;;52.17;24.38;;;3.20;81.70;;;;;;5097873;28;20049;-42
2020/12/19 00:16:29;;;;;;;55.85;25.50;;;3.10;81.80;;;;;;5098563;28;20107;-42
2020/12/19 00:18:55;;;;;;;54.40;26.50;;;3.20;82.00;;;;;;5098241;28;20126;-41
2020/12/19 00:21:21;;;;;;;49.75;25.60;;;3.20;81.90;;;;;;5097353;28;20035;-42
2020/12/19 00:23:47;;;;;;;48.45;23.77;;;3.20;81.80;;;;;;5097514;28;20032;-42
2020/12/19 00:26:12;;;;;;;55.45;25.65;;;3.20;81.80;;;;;;5097099;28;20064;-42
2020/12/19 00:28:39;;;;;;;53.22;24.98;;;3.20;81.80;;;;;;5097332;28;20105;-42
2020/12/19 00:31:05;;;;;;;45.03;23.63;;;3.20;81.60;;;;;;5098236;28;20406;-41
2020/12/19 00:33:31;;;;;;;50.00;24.70;;;3.20;81.50;;;;;;5097903;28;20114;-44
2020/12/19 00:35:56;;;;;;;45.17;22.00;;;3.20;81.50;;;;;;5097842;28;20036;-41
2020/12/19 00:38:22;;;;;;;48.67;23.88;;;3.20;81.40;;;;;;5098261;28;20066;-42
2020/12/19 00:40:48;;;;;;;51.40;23.85;;;3.20;81.60;;;;;;5098026;28;20404;-41
2020/12/19 00:43:14;;;;;;;52.28;24.50;;;3.20;81.50;;;;;;5097456;28;20059;-41
2020/12/19 00:45:39;;;;;;;43.80;22.27;;;3.10;81.40;;;;;;5098130;28;20070;-42
2020/12/19 00:48:05;;;;;;;52.92;24.42;;;3.10;81.50;;;;;;5098143;28;20016;-43
2020/12/19 00:50:31;;;;;;;52.40;24.65;;;3.10;81.50;;;;;;5098139;28;20052;-42
2020/12/19 00:52:56;;;;;;;53.28;24.98;;;3.10;81.60;;;;;;5097335;28;20036;-42
2020/12/19 00:55:22;;;;;;;51.20;23.85;;;3.10;81.60;;;;;;5097713;28;20024;-42
2020/12/19 00:57:48;;;;;;;53.83;24.30;;;3.10;81.60;;;;;;5097550;28;20405;-42
2020/12/19 01:00:13;;;;;;;55.75;26.02;;;3.10;81.60;;;;;;5097487;28;20117;-42
2020/12/19 01:02:39;;;;;;;51.45;23.73;;;3.00;81.60;;;;;;5097402;28;20020;-42
2020/12/19 01:05:07;;;;;;;45.08;22.65;;;3.10;81.80;;;;;;5097751;28;20336;-42
2020/12/19 01:07:36;;;;;;;48.58;22.48;;;3.10;81.90;;;;;;5097036;28;20020;-42
2020/12/19 01:10:04;;;;;;;48.67;23.08;;;3.10;81.90;;;;;;5097203;28;20039;-42
2020/12/19 01:12:30;;;;;;;42.35;20.75;;;3.10;82.00;;;;;;5097046;28;20115;-42
2020/12/19 01:14:56;;;;;;;53.70;23.63;;;3.10;82.00;;;;;;5097530;28;20489;-41
2020/12/19 01:17:21;;;;;;;41.65;20.35;;;3.10;82.00;;;;;;5096666;28;20443;-42
2020/12/19 01:19:47;;;;;;;41.92;21.60;;;3.10;82.00;;;;;;5096906;28;20051;-41
2020/12/19 01:22:13;;;;;;;59.92;25.42;;;3.10;82.00;;;;;;5097233;28;20405;-42
2020/12/19 01:24:38;;;;;;;53.63;24.98;;;3.10;82.20;;;;;;5096971;28;20034;-42
2020/12/19 01:27:04;;;;;;;51.33;21.52;;;3.20;82.40;;;;;;5096734;28;20020;-42
2020/12/19 01:29:29;;;;;;;47.45;21.65;;;3.20;82.50;;;;;;5096681;28;20413;-42
2020/12/19 01:31:55;;;;;;;65.93;27.15;;;3.20;82.40;;;;;;5097413;28;20028;-41
2020/12/19 01:34:21;;;;;;;44.30;21.60;;;3.30;82.40;;;;;;5097292;28;20085;-42
2020/12/19 01:36:47;;;;;;;47.15;20.40;;;3.30;82.80;;;;;;5097045;28;20027;-42
2020/12/19 01:39:12;;;;;;;57.13;25.35;;;3.30;82.10;;;;;;5097249;28;20039;-42
2020/12/19 01:41:38;;;;;;;43.78;22.15;;;3.30;82.00;;;;;;5097337;28;20028;-42
2020/12/19 01:44:05;;;;;;;39.88;20.58;;;3.30;82.10;;;;;;5095994;28;20461;-41
2020/12/19 01:46:46;;;;;;;40.67;20.27;;;3.30;82.00;;;;;;5096736;28;20053;-42
2020/12/19 01:49:12;;;;;;;53.03;24.58;;;3.30;81.90;;;;;;5096177;28;20020;-42
2020/12/19 01:51:38;;;;;;;43.78;21.40;;;3.30;82.00;;;;;;5097189;28;20062;-41
2020/12/19 01:54:08;;;;;;;45.95;21.75;;;3.30;82.10;;;;;;5096164;28;20027;-42
2020/12/19 01:56:39;;;;;;;49.78;23.17;;;3.30;82.10;;;;;;5096700;28;20380;-41
2020/12/19 01:59:06;;;;;;;41.22;20.27;;;3.30;82.00;;;;;;5096591;28;20035;-42
2020/12/19 02:01:34;;;;;;;47.05;22.13;;;3.30;81.90;;;;;;5097219;28;20063;-42
2020/12/19 02:04:00;;;;;;;53.55;26.15;;;3.30;81.80;;;;;;5096395;28;20024;-42
2020/12/19 02:06:28;;;;;;;59.92;26.48;;;3.30;81.60;;;;;;5096332;28;20158;-41
2020/12/19 02:08:54;;;;;;;43.63;20.33;;;3.30;81.70;;;;;;5096047;28;20381;-42
2020/12/19 02:11:22;;;;;;;53.40;24.02;;;3.30;81.90;;;;;;5096174;28;20081;-42
2020/12/19 02:13:48;;;;;;;55.08;24.02;;;3.30;82.00;;;;;;5096032;28;20020;-42
2020/12/19 02:16:20;;;;;;;44.58;19.13;;;3.30;82.10;;;;;;5096149;28;20027;-42
2020/12/19 02:18:46;;;;;;;46.60;22.55;;;3.30;82.10;;;;;;5096253;28;20055;-42
2020/12/19 02:21:13;;;;;;;41.55;19.10;;;3.40;82.20;;;;;;5096188;28;20024;-42
2020/12/19 02:23:38;;;;;;;43.70;19.83;;;3.40;82.10;;;;;;5095231;28;20436;-42
2020/12/19 02:26:04;;;;;;;55.13;23.17;;;3.50;82.10;;;;;;5096277;28;20043;-42
2020/12/19 02:28:30;;;;;;;44.03;21.17;;;3.50;82.00;;;;;;5095597;28;20032;-42
2020/12/19 02:30:55;;;;;;;54.65;24.63;;;3.50;82.00;;;;;;5096084;28;20425;-42
2020/12/19 02:33:21;;;;;;;45.42;21.05;;;3.50;82.00;;;;;;5096044;28;20082;-42
2020/12/19 02:35:47;;;;;;;41.42;20.40;;;3.50;81.90;;;;;;5095722;28;20035;-42
2020/12/19 02:38:13;;;;;;;46.72;22.08;;;3.50;81.80;;;;;;5095913;28;20429;-43
2020/12/19 02:40:38;;;;;;;41.90;20.48;;;3.50;81.80;;;;;;5096413;28;20081;-42
2020/12/19 02:43:04;;;;;;;43.08;21.10;;;3.60;81.80;;;;;;5095283;28;20055;-41
2020/12/19 02:45:30;;;;;;;39.22;18.83;;;3.50;81.60;;;;;;5095927;28;20048;-42
2020/12/19 02:47:55;;;;;;;49.80;24.65;;;3.60;81.70;;;;;;5095056;28;20421;-43
2020/12/19 02:50:21;;;;;;;41.45;19.98;;;3.60;81.70;;;;;;5095800;28;20036;-41
2020/12/19 02:52:47;;;;;;;42.55;19.48;;;3.60;81.70;;;;;;5095623;28;20127;-42
2020/12/19 02:55:12;;;;;;;45.40;19.15;;;3.60;81.70;;;;;;5093724;28;20036;-42
2020/12/19 02:57:38;;;;;;;50.92;22.73;;;3.60;81.60;;;;;;5094246;28;20012;-42
2020/12/19 03:00:05;;;;;;;40.88;17.38;;;3.60;81.50;;;;;;5094784;28;20039;-42
2020/12/19 03:02:31;;;;;;;44.97;21.05;;;3.60;81.60;;;;;;5094321;28;20325;-41
2020/12/19 03:04:57;;;;;;;50.45;23.83;;;3.60;81.60;;;;;;5094765;28;20053;-41
2020/12/19 03:07:22;;;;;;;43.85;21.00;;;3.60;81.50;;;;;;5094006;28;20020;-42
2020/12/19 03:09:48;;;;;;;41.72;19.33;;;3.60;81.60;;;;;;5093913;28;20057;-41
2020/12/19 03:12:14;;;;;;;41.58;20.13;;;3.60;81.60;;;;;;5094135;28;20093;-42
2020/12/19 03:14:39;;;;;;;41.75;19.88;;;3.60;81.80;;;;;;5094602;28;20039;-42
2020/12/19 03:17:05;;;;;;;38.65;18.88;;;3.60;81.80;;;;;;5094150;28;20429;-42
2020/12/19 03:19:31;;;;;;;34.53;18.15;;;3.60;82.00;;;;;;5094847;28;20020;-43
2020/12/19 03:21:56;;;;;;;33.33;16.17;;;3.60;82.10;;;;;;5095700;28;20036;-42
2020/12/19 03:24:22;;;;;;;38.85;17.17;;;3.60;82.10;;;;;;5080026;28;20029;-42
2020/12/19 03:26:49;;;;;;;36.22;17.80;;;3.70;82.10;;;;;;5089488;28;20039;-42
2020/12/19 03:29:14;;;;;;;42.58;18.80;;;3.70;82.10;;;;;;5075128;28;20320;-41
2020/12/19 03:31:40;;;;;;;38.38;18.38;;;3.70;82.10;;;;;;5094636;28;20012;-41
2020/12/19 03:34:06;;;;;;;34.70;16.65;;;3.70;82.00;;;;;;5096130;28;20440;-42
2020/12/19 03:36:32;;;;;;;33.08;16.42;;;3.70;81.90;;;;;;5099658;28;20051;-42
2020/12/19 03:38:58;;;;;;;37.83;17.45;;;3.70;81.90;;;;;;5096955;28;20032;-42
2020/12/19 03:41:24;;;;;;;42.17;18.77;;;3.70;81.80;;;;;;5079249;28;20032;-40
2020/12/19 03:43:50;;;;;;;36.28;17.50;;;3.70;81.90;;;;;;5079149;28;20041;-42
2020/12/19 03:46:16;;;;;;;34.05;17.15;;;3.70;81.80;;;;;;5079252;28;20421;-40
2020/12/19 03:48:42;;;;;;;35.45;17.05;;;3.70;81.80;;;;;;5079026;28;20361;-41
2020/12/19 03:51:08;;;;;;;38.63;18.48;;;3.70;81.80;;;;;;5078218;28;20052;-40
2020/12/19 03:53:34;;;;;;;39.88;18.58;;;3.70;81.90;;;;;;5081346;28;20081;-40
2020/12/19 03:56:00;;;;;;;38.58;18.35;;;3.70;81.90;;;;;;5078420;28;20086;-41
2020/12/19 03:58:26;;;;;;;39.33;19.60;;;3.70;81.90;;;;;;5082714;28;20032;-43
2020/12/19 04:00:52;;;;;;;40.33;19.75;;;3.70;81.90;;;;;;5088227;28;20329;-40
2020/12/19 04:03:18;;;;;;;36.50;17.58;;;3.70;82.00;;;;;;5098526;28;20020;-42
2020/12/19 04:05:43;;;;;;;30.00;16.60;;;3.70;82.00;;;;;;5091466;28;20138;-40
2020/12/19 04:08:09;;;;;;;39.15;18.10;;;3.70;82.00;;;;;;5083421;28;20027;-42
2020/12/19 04:10:35;;;;;;;36.03;17.35;;;3.70;82.00;;;;;;5079770;28;20444;-41
2020/12/19 04:13:01;;;;;;;39.28;18.08;;;3.70;82.00;;;;;;5090757;28;20106;-43
2020/12/19 04:15:26;;;;;;;37.65;18.75;;;3.70;82.00;;;;;;5093840;28;20036;-42
2020/12/19 04:17:53;;;;;;;43.78;19.73;;;3.70;82.10;;;;;;5060771;28;20024;-43
2020/12/19 04:20:19;;;;;;;40.42;17.95;;;3.70;82.10;;;;;;5045419;28;20131;-45
2020/12/19 04:22:46;;;;;;;44.10;18.73;;;3.70;82.00;;;;;;5078002;28;20378;-43
2020/12/19 04:25:13;;;;;;;35.50;17.00;;;3.70;82.10;;;;;;5075790;28;20127;-43
2020/12/19 04:27:39;;;;;;;44.03;21.13;;;3.70;82.00;;;;;;5076747;28;20051;-43
2020/12/19 04:30:07;;;;;;;42.88;19.77;;;3.70;81.90;;;;;;5093315;28;20035;-43
2020/12/19 04:32:34;;;;;;;35.00;18.55;;;3.70;81.80;;;;;;5079727;28;20411;-43
2020/12/19 04:35:00;;;;;;;39.22;18.88;;;3.70;81.80;;;;;;5078720;28;20356;-42
2020/12/19 04:37:25;;;;;;;48.42;22.70;;;3.70;81.70;;;;;;5077710;28;20310;-42
2020/12/19 04:39:54;;;;;;;41.80;20.25;;;3.70;81.80;;;;;;5077630;28;20042;-41
2020/12/19 04:42:21;;;;;;;45.45;21.63;;;3.70;81.70;;;;;;5084710;28;20048;-42
2020/12/19 04:44:47;;;;;;;47.53;22.00;;;3.70;81.70;;;;;;5096157;28;20043;-42
2020/12/19 04:47:14;;;;;;;49.22;24.33;;;3.70;81.70;;;;;;5093336;28;20448;-43
2020/12/19 04:49:43;;;;;;;46.75;21.90;;;3.60;81.60;;;;;;5086329;28;20027;-41
2020/12/19 04:52:09;;;;;;;53.22;23.83;;;3.60;81.80;;;;;;5098965;28;20042;-41
2020/12/19 04:54:41;;;;;;;45.92;23.33;;;3.60;81.80;;;;;;5097831;28;20337;-43
2020/12/19 04:57:16;;;;;;;48.35;22.58;;;3.60;81.90;;;;;;5098849;28;20032;-41
2020/12/19 04:59:41;;;;;;;45.00;22.95;;;3.60;82.00;;;;;;5098578;28;20020;-41
2020/12/19 05:02:07;;;;;;;52.75;23.25;;;3.60;81.90;;;;;;5086116;28;20409;-41
2020/12/19 05:04:37;;;;;;;48.03;22.92;;;3.60;81.80;;;;;;5076600;28;20363;-44
2020/12/19 05:07:06;;;;;;;49.65;23.35;;;3.60;81.90;;;;;;5076143;28;20123;-41
2020/12/19 05:09:43;;;;;;;49.40;22.52;;;3.60;82.00;;;;;;5075208;28;20113;-41
2020/12/19 05:12:10;;;;;;;45.95;21.38;;;3.60;82.20;;;;;;5075766;28;20119;-41
2020/12/19 05:14:37;;;;;;;49.67;22.67;;;3.60;82.20;;;;;;5076240;28;20313;-41
2020/12/19 05:17:03;;;;;;;55.10;23.70;;;3.60;82.10;;;;;;5075047;28;20036;-41
2020/12/19 05:19:29;;;;;;;52.40;23.00;;;3.60;82.10;;;;;;5075552;28;20043;-41
2020/12/19 05:21:56;;;;;;;55.60;23.02;;;3.60;81.90;;;;;;5078585;28;20448;-41
2020/12/19 05:24:31;;;;;;;41.97;20.15;;;3.60;81.90;;;;;;5089015;28;20028;-41
2020/12/19 05:26:58;;;;;;;48.35;22.73;;;3.60;82.00;;;;;;5092287;28;20036;-41
2020/12/19 05:29:25;;;;;;;57.10;24.40;;;3.60;81.80;;;;;;5094714;28;20023;-41
2020/12/19 05:31:59;;;;;;;53.20;23.63;;;3.60;81.80;;;;;;5075807;28;20028;-41
2020/12/19 05:34:26;;;;;;;49.10;23.30;;;3.60;81.60;;;;;;5075279;28;20027;-41
2020/12/19 05:36:52;;;;;;;57.88;24.95;;;3.60;81.60;;;;;;5067214;28;20028;-41
2020/12/19 05:39:18;;;;;;;52.67;22.75;;;3.60;81.60;;;;;;5095123;28;20390;-40
2020/12/19 05:41:46;;;;;;;45.08;19.65;;;3.60;81.70;;;;;;5094698;28;20118;-41
2020/12/19 05:44:21;;;;;;;44.08;19.92;;;3.60;81.80;;;;;;5095705;28;20067;-40
2020/12/19 05:46:47;;;;;;;43.45;20.00;;;3.60;81.80;;;;;;5095389;28;20086;-40
2020/12/19 05:49:14;;;;;;;52.63;24.25;;;3.60;81.80;;;;;;5094947;28;20023;-42
2020/12/19 05:51:42;;;;;;;54.55;22.73;;;3.60;81.90;;;;;;5095708;28;20103;-41
2020/12/19 05:54:09;;;;;;;51.35;23.92;;;3.60;81.90;;;;;;5095805;28;20028;-41
2020/12/19 05:56:41;;;;;;;52.85;21.55;;;3.60;81.80;;;;;;5095892;28;20024;-41
2020/12/19 05:59:11;;;;;;;46.17;20.98;;;3.60;81.70;;;;;;5096461;28;20023;-41
2020/12/19 06:01:40;;;;;;;51.35;22.83;;;3.60;81.80;;;;;;5095638;28;20024;-41
2020/12/19 06:04:08;;;;;;;52.58;23.77;;;3.60;81.80;;;;;;5096295;28;20447;-41
2020/12/19 06:06:40;;;;;;;51.80;22.13;;;3.60;81.90;;;;;;5095982;28;20141;-41
2020/12/19 06:09:07;;;;;;;50.83;21.73;;;3.60;82.00;;;;;;5095476;28;20039;-40
2020/12/19 06:11:49;;;;;;;56.90;25.25;;;3.60;82.00;;;;;;5096027;28;20031;-41
2020/12/19 06:14:20;;;;;;;61.33;24.75;;;3.60;82.00;;;;;;5096385;28;20031;-41
2020/12/19 06:16:48;;;;;;;53.28;22.92;;;3.60;82.00;;;;;;5095285;28;20058;-41
2020/12/19 06:19:19;;;;;;;52.55;21.58;;;3.60;82.00;;;;;;5095155;28;20046;-41
2020/12/19 06:21:55;;;;;;;53.67;23.50;;;3.60;82.10;;;;;;5094613;28;20016;-41
2020/12/19 06:24:44;;;;;;;59.38;24.88;;;3.60;82.20;;;;;;5095603;28;20028;-41
2020/12/19 06:27:11;;;;;;;41.38;19.58;;;3.70;82.20;;;;;;5095229;28;20128;-40
2020/12/19 06:29:38;;;;;;;76.47;34.10;;;3.70;82.30;;;;;;5095783;28;20047;-41
2020/12/19 06:32:04;;;;;;;58.08;23.15;;;3.70;82.20;;;;;;5095724;28;20028;-41
2020/12/19 06:34:30;;;;;;;65.47;26.92;;;3.70;82.10;;;;;;5095416;28;20035;-41
2020/12/19 06:36:57;;;;;;;59.58;24.58;;;3.70;82.10;;;;;;5094879;28;20080;-41
2020/12/19 06:39:22;;;;;;;72.88;27.85;;;3.70;82.10;;;;;;5095756;28;20337;-42
2020/12/19 06:41:58;;;;;;;66.82;26.88;;;3.70;82.10;;;;;;5094796;28;20028;-41
2020/12/19 06:44:23;;;;;;;70.32;29.55;;;3.70;82.10;;;;;;5095748;28;20098;-41
2020/12/19 06:46:50;;;;;;;70.43;28.25;;;3.70;82.20;;;;;;5094823;28;20078;-41
2020/12/19 06:49:25;;;;;;;73.65;28.98;;;3.80;82.30;;;;;;5094411;28;20043;-42
2020/12/19 06:52:03;;;;;;;88.70;29.80;;;3.80;82.30;;;;;;5094395;28;20448;-41
2020/12/19 06:54:31;;;;;;;69.80;25.35;;;3.80;82.30;;;;;;5088157;28;20082;-41
2020/12/19 06:56:58;;;;;;;77.60;29.13;;;3.80;82.30;;;;;;5095036;28;20406;-41
2020/12/19 06:59:25;;;;;;;83.85;31.67;;;3.80;82.30;;;;;;5094958;28;20042;-41
2020/12/19 07:01:50;;;;;;;73.93;26.30;;;3.90;82.40;;;;;;5084469;28;20074;-41
2020/12/19 07:04:35;;;;;;;71.85;27.08;;;3.90;82.40;;;;;;5091090;28;20048;-44
2020/12/19 07:07:09;;;;;;;77.13;29.83;;;3.90;82.50;;;;;;5093695;28;20054;-41
2020/12/19 07:09:35;;;;;;;81.88;29.88;;;3.90;82.10;;;;;;5094146;28;20344;-41
2020/12/19 07:12:02;;;;;;;65.00;25.02;;;4.00;82.10;;;;;;5084661;28;20115;-42
2020/12/19 07:14:43;;;;;;;88.95;30.88;;;4.00;82.20;;;;;;5085063;28;20048;-42
2020/12/19 07:17:19;;;;;;;91.45;29.38;;;4.00;82.00;;;;;;5087052;28;20103;-41
2020/12/19 07:19:57;;;;;;;87.20;29.40;;;4.00;81.80;;;;;;5079260;28;20114;-41
2020/12/19 07:22:26;;;;;;;84.13;30.85;;;4.00;81.80;;;;;;5091260;28;20077;-41
2020/12/19 07:24:54;;;;;;;93.00;33.58;;;4.00;81.90;;;;;;5083862;28;20040;-40
2020/12/19 07:27:24;;;;;;;68.43;26.52;;;4.00;82.00;;;;;;5087394;28;20040;-42
2020/12/19 07:29:57;;;;;;;74.53;26.42;;;4.10;82.20;;;;;;5090976;28;20110;-43
2020/12/19 07:32:23;;;;;;;83.18;30.55;;;4.10;82.10;;;;;;5078877;28;20111;-42
2020/12/19 07:34:57;;;;;;;74.53;27.60;;;4.10;82.00;;;;;;5084627;28;20028;-40
2020/12/19 07:37:24;;;;;;;83.10;29.70;;;4.10;81.70;;;;;;5090474;28;20034;-41
2020/12/19 07:39:51;;;;;;;92.93;30.90;;;4.10;81.60;;;;;;5091362;28;20041;-41
2020/12/19 07:42:17;;;;;;;69.93;26.17;;;4.10;81.60;;;;;;5082898;28;20032;-41
2020/12/19 07:44:45;;;;;;;75.78;27.92;;;4.20;81.60;;;;;;5074592;28;20044;-41
2020/12/19 07:47:13;;;;;;;67.07;25.90;;;4.20;81.60;;;;;;5075829;28;20032;-41
2020/12/19 07:49:46;;;;;;;77.78;30.90;;;4.10;81.50;;;;;;5076587;28;20045;-42
2020/12/19 07:52:23;;;;;;;68.20;28.27;;;4.10;81.40;;;;;;5076634;28;20422;-42
2020/12/19 07:55:01;;;;;;;61.80;25.15;;;4.20;81.50;;;;;;5076068;28;20063;-42
2020/12/19 07:57:33;;;;;;;64.88;24.58;;;4.20;81.50;;;;;;5075779;28;20067;-41
2020/12/19 08:00:03;;;;;;;73.90;28.23;;;4.20;81.50;;;;;;5075632;28;20025;-42
2020/12/19 08:02:29;;;;;;;86.07;26.57;;;4.20;81.20;;;;;;5077206;28;20433;-41
2020/12/19 08:04:57;;;;;;;65.00;24.80;;;4.20;81.20;;;;;;5076619;28;20293;-42
2020/12/19 08:07:28;;;;;;;75.68;28.40;;;4.20;81.40;;;;;;5075394;28;20032;-41
2020/12/19 08:10:04;;;;;;;73.45;27.40;;;4.10;81.20;;;;;;5076509;28;20353;-41
2020/12/19 08:12:31;;;;;;;75.40;26.52;;;4.10;81.10;;;;;;5076247;28;20048;-42
2020/12/19 08:15:00;;;;;;;83.57;27.90;;;4.10;81.20;;;;;;5076495;28;20032;-42
2020/12/19 08:17:26;;;;;;;68.88;26.67;;;4.10;81.30;;;;;;5077772;28;20067;-42
2020/12/19 08:19:56;;;;;;;68.13;26.08;;;4.10;81.60;;;;;;5078125;28;20025;-42
2020/12/19 08:22:22;;;;;;;69.90;27.10;;;4.10;81.70;;;;;;5076421;28;20024;-42
2020/12/19 08:24:50;;;;;;;59.10;22.63;;;4.10;81.50;;;;;;5077710;28;20031;-42
2020/12/19 08:27:40;;;;;;;62.13;25.95;;;4.10;81.40;;;;;;5085421;28;20032;-41
2020/12/19 08:30:14;;;;;;;56.45;23.48;;;4.10;81.50;;;;;;5097155;28;20039;-41
2020/12/19 08:33:00;;;;;;;61.90;25.75;;;4.20;81.50;;;;;;5096767;28;20069;-42
2020/12/19 08:35:33;;;;;;;76.47;28.67;;;4.20;81.30;;;;;;5093496;28;20050;-42
2020/12/19 08:38:06;;;;;;;62.35;25.95;;;4.20;81.40;;;;;;5094383;28;20028;-42
2020/12/19 08:40:37;;;;;;;55.85;27.23;;;4.20;81.60;;;;;;5092718;28;20039;-42
2020/12/19 08:43:03;;;;;;;;;;;4.20;81.60;;;;;;5094497;28;20089;-41
2020/12/19 08:45:33;;;;;;;59.97;28.00;;;4.20;81.50;;;;;;5103238;28;20028;-42
2020/12/19 08:48:05;;;;;;;54.78;24.88;;;4.20;82.00;;;;;;5098584;28;20028;-42
2020/12/19 08:50:41;;;;;;;53.90;23.55;;;4.20;81.40;;;;;;5105095;28;20032;-42
2020/12/19 08:53:15;;;;;;;51.65;24.92;;;4.20;81.50;;;;;;5092828;28;20428;-41
2020/12/19 08:55:40;;;;;;;49.75;22.35;;;4.20;81.40;;;;;;5094970;28;20430;-42
2020/12/19 08:58:07;;;;;;;53.85;24.85;;;4.20;81.10;;;;;;5095507;28;20024;-41
2020/12/19 09:00:34;;;;;;;52.75;24.98;;;4.20;81.10;;;;;;5095072;28;20397;-42
2020/12/19 09:03:09;;;;;;;51.17;23.98;;;4.20;81.10;;;;;;5094200;28;20436;-42
2020/12/19 09:05:42;;;;;;;52.30;23.50;;;4.20;81.00;;;;;;5095386;28;20036;-41
2020/12/19 09:08:12;;;;;;;47.83;23.38;;;4.20;81.00;;;;;;5095105;28;20031;-41
2020/12/19 09:10:39;;;;;;;52.38;25.25;;;4.20;81.20;;;;;;5086862;28;20308;-41
2020/12/19 09:13:12;;;;;;;53.60;25.75;;;4.20;81.30;;;;;;5095262;28;20027;-41
2020/12/19 09:15:40;;;;;;;53.72;25.58;;;4.20;81.30;;;;;;5094886;28;20036;-41
2020/12/19 09:18:16;;;;;;;50.95;24.52;;;4.30;81.50;;;;;;5096431;28;20030;-42
2020/12/19 09:20:43;;;;;;;57.22;26.52;;;4.30;81.50;;;;;;5096527;28;20073;-41
2020/12/19 09:23:10;;;;;;;66.40;27.50;;;4.40;81.60;;;;;;5096230;28;20028;-41
2020/12/19 09:25:36;;;;;;;50.22;23.65;;;4.40;81.60;;;;;;5100439;28;20036;-41
2020/12/19 09:28:02;;;;;;;45.42;21.60;;;4.50;81.70;;;;;;5096338;28;20028;-41
2020/12/19 09:30:28;;;;;;;48.58;23.70;;;4.50;81.40;;;;;;5095935;28;20119;-42
2020/12/19 09:32:53;;;;;;;48.05;24.33;;;4.50;81.20;;;;;;5095650;28;20032;-41
2020/12/19 09:35:19;;;;;;;48.53;22.85;;;4.50;81.20;;;;;;5094460;28;20532;-42
2020/12/19 09:37:44;;;;;;;67.00;27.58;;;4.60;81.30;;;;;;5084667;28;20081;-41
2020/12/19 09:40:10;;;;;;;45.60;23.50;;;4.60;81.20;;;;;;5095683;28;20067;-42
2020/12/19 09:42:36;;;;;;;56.55;25.20;;;4.70;81.10;;;;;;5099699;28;20039;-41
2020/12/19 09:45:02;;;;;;;55.13;25.30;;;4.70;81.00;;;;;;5108153;28;20055;-42
2020/12/19 09:47:27;;;;;;;52.17;24.77;;;4.70;80.60;;;;;;5095552;28;20038;-42
2020/12/19 09:49:53;;;;;;;54.03;25.05;;;4.70;80.40;;;;;;5096073;28;20051;-43
2020/12/19 09:52:19;;;;;;;55.97;27.05;;;4.70;80.50;;;;;;5095733;28;20024;-43
2020/12/19 09:54:45;;;;;;;53.22;24.80;;;4.70;80.40;;;;;;5095398;28;20028;-43
2020/12/19 09:57:10;;;;;;;77.40;39.60;;;4.70;80.40;;;;;;5095462;28;20028;-42
2020/12/19 09:59:36;;;;;;;51.28;24.13;;;4.70;80.70;;;;;;5095168;28;20031;-42
2020/12/19 10:02:02;;;;;;;55.17;26.55;;;4.70;80.60;;;;;;5101351;28;20440;-42
2020/12/19 10:04:27;;;;;;;50.95;25.42;;;4.70;80.20;;;;;;5096282;28;20028;-41
2020/12/19 10:06:53;;;;;;;49.08;23.50;;;4.70;80.00;;;;;;5096457;28;20035;-41
2020/12/19 10:09:19;;;;;;;67.68;31.38;;;4.70;79.90;;;;;;5095221;28;20073;-43
2020/12/19 10:11:45;;;;;;;53.75;29.60;;;4.70;79.80;;;;;;5095754;28;20039;-43
2020/12/19 10:14:10;;;;;;;57.55;27.45;;;4.70;80.00;;;;;;5095802;28;20028;-43
2020/12/19 10:16:36;;;;;;;51.50;25.67;;;4.70;80.30;;;;;;5095146;28;20494;-44
2020/12/19 10:19:02;;;;;;;49.25;25.48;;;4.70;80.00;;;;;;5096940;28;20085;-42
2020/12/19 10:21:28;;;;;;;53.00;29.30;;;4.70;79.70;;;;;;5087714;28;20463;-42
2020/12/19 10:23:54;;;;;;;64.00;30.63;;;4.70;79.80;;;;;;5095870;28;20073;-42
2020/12/19 10:26:20;;;;;;;64.07;32.70;;;4.70;80.10;;;;;;5094941;28;20044;-43
2020/12/19 10:28:46;;;;;;;62.05;29.17;;;4.70;80.20;;;;;;5094072;28;20483;-42
2020/12/19 10:31:12;;;;;;;87.55;26.30;;;4.70;79.90;;;;;;5092969;28;20031;-43
2020/12/19 10:33:37;;;;;;;90.18;29.10;;;4.70;80.00;;;;;;5094687;28;20019;-42
2020/12/19 10:36:03;;;;;;;96.25;43.85;;;4.70;80.60;;;;;;5094028;28;20349;-42
2020/12/19 10:38:29;;;;;;;63.60;32.47;;;4.70;80.00;;;;;;5095274;28;20020;-42
2020/12/19 10:40:54;;;;;;;60.40;29.42;;;4.70;79.70;;;;;;5095227;28;20287;-43
2020/12/19 10:43:20;;;;;;;75.95;32.65;;;4.80;79.80;;;;;;5095207;28;20052;-42
2020/12/19 10:45:46;;;;;;;67.93;27.67;;;4.70;79.70;;;;;;5092582;28;20317;-44
2020/12/19 10:48:12;;;;;;;56.47;27.52;;;4.80;79.80;;;;;;5082079;28;20108;-42
2020/12/19 10:50:37;;;;;;;46.83;24.65;;;4.80;79.80;;;;;;5090361;28;20055;-44
2020/12/19 10:53:03;;;;;;;56.20;29.83;;;4.80;79.50;;;;;;5085480;28;20067;-42
2020/12/19 10:55:28;;;;;;;56.30;31.30;;;4.80;79.40;;;;;;5084287;28;21472;-43
2020/12/19 10:57:54;;;;;;;45.65;23.48;;;4.80;79.60;;;;;;5078001;28;20100;-42
2020/12/19 11:00:20;;;;;;;45.80;23.23;;;4.80;79.60;;;;;;5094753;28;20027;-43
2020/12/19 11:02:46;;;;;;;56.25;28.42;;;4.80;79.30;;;;;;5114116;28;20034;-43
2020/12/19 11:05:11;;;;;;;50.45;26.85;;;4.70;79.30;;;;;;5089524;28;20044;-41
2020/12/19 11:07:37;;;;;;;46.05;24.38;;;4.70;79.50;;;;;;5091643;28;20135;-40
2020/12/19 11:10:04;;;;;;;42.22;22.42;;;4.70;79.70;;;;;;5084408;28;20024;-41
2020/12/19 11:12:29;;;;;;;63.10;34.30;;;4.80;79.80;;;;;;5082916;28;20030;-41
2020/12/19 11:14:55;;;;;;;62.83;35.28;;;4.80;79.80;;;;;;5078241;28;20130;-41
2020/12/19 11:17:21;;;;;;;54.03;30.85;;;4.80;79.80;;;;;;5083328;28;20111;-41
2020/12/19 11:19:47;;;;;;;80.22;43.08;;;4.80;79.70;;;;;;5080110;28;20020;-41
2020/12/19 11:22:12;;;;;;;56.80;30.40;;;4.80;79.50;;;;;;5085535;28;20278;-40
2020/12/19 11:24:38;;;;;;;55.10;29.88;;;4.80;79.50;;;;;;5077200;28;20056;-43
2020/12/19 11:27:04;;;;;;;51.03;26.33;;;4.80;79.70;;;;;;5082181;28;20036;-40
2020/12/19 11:29:29;;;;;;;46.33;24.30;;;4.80;79.80;;;;;;5082783;28;20032;-41
2020/12/19 11:31:55;;;;;;;47.40;23.92;;;4.80;80.00;;;;;;5076529;28;20066;-40
2020/12/19 11:34:21;;;;;;;46.72;24.98;;;4.80;79.70;;;;;;5086784;28;20453;-42
2020/12/19 11:36:47;;;;;;;46.95;24.55;;;4.70;79.60;;;;;;5080517;28;20106;-41
2020/12/19 11:39:14;;;;;;;43.60;23.95;;;4.80;79.70;;;;;;5078351;28;20058;-40
2020/12/19 11:41:40;;;;;;;46.83;24.98;;;4.70;79.80;;;;;;5080064;28;20342;-41
2020/12/19 11:44:11;;;;;;;50.95;30.48;;;4.80;80.00;;;;;;5110224;28;20051;-40
2020/12/19 11:46:37;;;;;;;55.00;30.65;;;4.80;80.00;;;;;;5113938;28;20039;-40
2020/12/19 11:49:02;;;;;;;55.17;30.30;;;4.80;80.00;;;;;;5113852;28;20118;-40
2020/12/19 11:51:30;;;;;;;43.83;24.73;;;4.80;79.80;;;;;;5111683;28;20115;-42
2020/12/19 11:53:59;;;;;;;61.33;32.28;;;4.80;80.00;;;;;;5112597;28;20032;-40
